Time;durP1;ratioP1;P1;durP2;ratioP2;P2;SDS_P1;SDS_P2;PMS_P1;PMS_P2;Temp;Humidity;BMP_temperature;BMP_pressure;BME280_temperature;BME280_humidity;BME280_pressure;Samples;Min_cycle;Max_cycle;Signal;HPM_P1;HPM_P2
2022/07/03 00:01:38;;;;;;;3.30;2.38;;;;;;;28.74;35.01;96984.84;5074680;28;20501;-26
2022/07/03 00:04:04;;;;;;;2.75;1.90;;;;;;;28.75;34.89;96975.94;5074420;28;20086;-26
2022/07/03 00:06:31;;;;;;;5.35;2.58;;;;;;;28.75;35.25;96983.56;5073720;28;20568;-26
2022/07/03 00:08:58;;;;;;;3.03;2.33;;;;;;;28.75;35.13;96981.53;5074012;28;20075;-26
2022/07/03 00:11:25;;;;;;;4.70;2.15;;;;;;;28.77;35.08;96978.97;5074243;28;20021;-26
2022/07/03 00:13:50;;;;;;;2.40;2.20;;;;;;;28.74;35.30;96980.03;5074342;28;20478;-26
2022/07/03 00:16:16;;;;;;;4.55;2.83;;;;;;;28.77;35.30;96975.41;5074268;28;20043;-26
2022/07/03 00:18:42;;;;;;;5.15;2.47;;;;;;;28.76;35.38;96980.25;5074211;28;20016;-26
2022/07/03 00:21:09;;;;;;;2.92;2.08;;;;;;;28.78;35.16;96982.50;5074275;28;20020;-26
2022/07/03 00:23:42;;;;;;;3.30;2.30;;;;;;;28.79;35.53;96987.59;5073999;28;20052;-26
2022/07/03 00:26:08;;;;;;;3.72;2.20;;;;;;;28.79;35.33;96982.00;5074193;28;20023;-26
2022/07/03 00:28:34;;;;;;;2.65;2.10;;;;;;;28.77;35.72;96984.53;5084031;28;20031;-26
2022/07/03 00:30:59;;;;;;;4.90;2.75;;;;;;;28.71;36.08;96981.09;5090456;28;20028;-26
2022/07/03 00:33:28;;;;;;;2.58;2.28;;;;;;;28.75;36.03;96984.31;5094347;28;20016;-26
2022/07/03 00:35:55;;;;;;;4.75;2.35;;;;;;;28.75;36.30;96989.91;5094141;28;20021;-26
2022/07/03 00:38:22;;;;;;;5.45;2.42;;;;;;;28.76;36.08;96987.88;5094143;28;20048;-26
2022/07/03 00:40:48;;;;;;;5.97;2.67;;;;;;;28.79;36.04;96992.41;5094162;28;20034;-26
2022/07/03 00:43:16;;;;;;;3.17;2.50;;;;;;;28.76;36.42;96991.41;5094245;28;20099;-26
2022/07/03 00:45:46;;;;;;;4.18;2.70;;;;;;;28.75;36.80;96998.28;5094036;28;20027;-26
2022/07/03 00:48:14;;;;;;;4.72;2.38;;;;;;;28.74;36.45;96998.81;5094084;28;20024;-26
2022/07/03 00:50:45;;;;;;;7.00;2.60;;;;;;;28.68;37.27;96990.56;5093954;28;20099;-26
2022/07/03 00:53:12;;;;;;;3.45;2.33;;;;;;;28.73;36.47;96995.25;5094007;28;20389;-26
2022/07/03 00:55:41;;;;;;;4.07;2.70;;;;;;;28.73;36.45;96989.69;5094166;28;20032;-26
2022/07/03 00:58:07;;;;;;;6.35;2.83;;;;;;;28.75;36.54;96983.56;5094100;28;20039;-26
2022/07/03 01:00:38;;;;;;;6.50;2.40;;;;;;;28.75;36.63;96975.19;5093946;28;20012;-26
2022/07/03 01:03:14;;;;;;;3.97;2.78;;;;;;;28.78;36.18;96974.91;5093828;28;20024;-27
2022/07/03 01:05:45;;;;;;;3.65;2.53;;;;;;;28.77;36.71;96981.00;5093538;28;20505;-26
2022/07/03 01:08:29;;;;;;;5.65;2.50;;;;;;;28.73;36.38;96983.34;5093668;28;20023;-26
2022/07/03 01:11:17;;;;;;;6.68;2.40;;;;;;;28.74;36.71;96977.22;5093746;28;20028;-26
2022/07/03 01:14:16;;;;;;;6.00;2.70;;;;;;;28.46;38.01;96979.75;5093563;28;20516;-26
2022/07/03 01:16:50;;;;;;;4.15;2.70;;;;;;;28.64;37.49;96986.56;5093885;28;20031;-26
2022/07/03 01:19:41;;;;;;;4.07;2.90;;;;;;;28.69;37.13;96983.66;5092766;28;20137;-26
2022/07/03 01:22:44;;;;;;;4.80;2.53;;;;;;;28.71;37.12;96972.72;5093499;28;20389;-26
2022/07/03 01:25:12;;;;;;;;;;;;;;;28.64;37.42;96972.59;5093864;28;20023;-26
2022/07/03 01:27:46;;;;;;;4.93;2.50;;;;;;;28.70;37.16;96967.66;5093287;28;19908;-26
2022/07/03 01:30:12;;;;;;;5.88;2.85;;;;;;;28.71;37.32;96981.09;5093406;28;20111;-26
2022/07/03 01:32:43;;;;;;;7.22;3.08;;;;;;;28.52;37.73;96966.47;5093480;28;20024;-27
2022/07/03 01:35:12;;;;;;;7.07;2.60;;;;;;;28.67;37.35;96974.34;5093438;28;20020;-26
2022/07/03 01:37:40;;;;;;;6.05;2.53;;;;;;;28.67;37.14;96969.50;5093294;28;20056;-26
2022/07/03 01:40:07;;;;;;;7.43;3.10;;;;;;;28.65;37.38;96968.53;5093386;28;20023;-26
2022/07/03 01:42:38;;;;;;;5.70;3.10;;;;;;;28.53;37.49;96959.59;5093626;28;20572;-26
2022/07/03 01:45:05;;;;;;;5.97;3.13;;;;;;;28.66;37.01;96973.59;5093545;28;20482;-26
2022/07/03 01:47:32;;;;;;;5.85;2.80;;;;;;;28.65;37.34;96966.50;5093830;28;20062;-26
2022/07/03 01:50:00;;;;;;;4.07;2.67;;;;;;;28.72;36.59;96965.84;5093124;28;20025;-27
2022/07/03 01:52:30;;;;;;;4.35;2.50;;;;;;;28.73;36.33;96963.81;5093255;28;20027;-25
2022/07/03 01:54:59;;;;;;;5.90;2.88;;;;;;;28.70;36.85;96962.84;5093174;28;20500;-26
2022/07/03 01:57:37;;;;;;;5.22;2.55;;;;;;;28.70;36.42;96956.50;5093136;28;20024;-26
2022/07/03 02:00:03;;;;;;;4.95;2.60;;;;;;;28.71;36.54;96955.97;5093220;28;20030;-25
2022/07/03 02:02:34;;;;;;;5.75;2.88;;;;;;;28.69;36.63;96957.78;5092921;28;20111;-26
2022/07/03 02:05:06;;;;;;;4.47;2.63;;;;;;;28.70;36.55;96953.72;5093182;28;20541;-27
2022/07/03 02:08:19;;;;;;;5.82;3.00;;;;;;;28.66;36.65;96951.25;5092153;28;20508;-26
2022/07/03 02:11:08;;;;;;;6.07;2.75;;;;;;;28.58;37.09;96958.75;5093121;28;20020;-26
2022/07/03 02:13:39;;;;;;;7.60;3.25;;;;;;;28.63;37.27;96966.28;5093117;28;20016;-26
2022/07/03 02:16:08;;;;;;;8.13;3.10;;;;;;;28.65;36.97;96954.56;5093293;28;20462;-26
2022/07/03 02:18:36;;;;;;;4.90;3.05;;;;;;;28.70;36.89;96962.84;5092964;28;20099;-26
2022/07/03 02:21:04;;;;;;;5.18;3.15;;;;;;;28.70;36.87;96962.84;5092930;28;20098;-26
2022/07/03 02:23:39;;;;;;;6.20;3.00;;;;;;;28.54;37.28;96969.47;5093144;28;20502;-26
2022/07/03 02:26:11;;;;;;;6.40;3.08;;;;;;;28.62;37.46;96970.34;5092888;28;20020;-26
2022/07/03 02:28:39;;;;;;;7.95;2.97;;;;;;;28.67;36.88;96963.16;5092867;28;20445;-26
2022/07/03 02:31:09;;;;;;;3.80;2.80;;;;;;;28.66;36.74;96973.59;5095154;28;20381;-26
2022/07/03 02:33:38;;;;;;;3.83;3.05;;;;;;;28.54;37.17;96967.44;5096752;28;20032;-26
2022/07/03 02:36:06;;;;;;;6.97;2.88;;;;;;;28.67;36.72;96960.38;5096448;28;20023;-26
2022/07/03 02:38:31;;;;;;;5.30;2.97;;;;;;;28.61;37.17;96960.47;5096547;28;20038;-26
2022/07/03 02:41:06;;;;;;;4.40;2.83;;;;;;;28.65;36.84;96965.75;5096474;28;20533;-26
2022/07/03 02:43:44;;;;;;;6.28;3.30;;;;;;;28.69;36.70;96958.53;5096301;28;20027;-26
2022/07/03 02:46:48;;;;;;;4.07;2.83;;;;;;;28.66;36.75;96959.63;5096304;28;20052;-26
2022/07/03 02:50:01;;;;;;;4.25;2.70;;;;;;;28.65;36.59;96972.06;5096223;28;20622;-26
2022/07/03 02:52:38;;;;;;;6.05;2.80;;;;;;;28.66;36.62;96962.41;5096177;28;20026;-26
2022/07/03 02:55:26;;;;;;;3.80;2.60;;;;;;;28.64;36.40;96961.44;5096263;28;20042;-26
2022/07/03 02:58:14;;;;;;;3.75;2.63;;;;;;;28.62;36.52;96964.00;5092364;28;20040;-26
2022/07/03 03:00:49;;;;;;;4.15;3.13;;;;;;;28.62;36.45;96961.97;5096032;28;20022;-26
2022/07/03 03:03:20;;;;;;;4.35;2.67;;;;;;;28.67;36.57;96958.34;5096347;28;20023;-26
2022/07/03 03:05:48;;;;;;;4.18;2.80;;;;;;;28.64;36.43;96961.44;5095971;28;20139;-26
2022/07/03 03:08:24;;;;;;;4.50;2.47;;;;;;;28.66;36.74;96954.03;5096062;28;20016;-26
2022/07/03 03:10:51;;;;;;;5.97;2.85;;;;;;;28.63;36.64;96957.91;5096081;28;20028;-26
2022/07/03 03:13:19;;;;;;;5.90;3.00;;;;;;;28.67;36.54;96952.75;5095883;28;20024;-27
2022/07/03 03:16:10;;;;;;;4.50;2.70;;;;;;;28.67;36.61;96957.59;5095833;28;20027;-26
2022/07/03 03:18:38;;;;;;;6.18;3.22;;;;;;;28.65;36.93;96951.78;5095657;28;20385;-26
2022/07/03 03:21:06;;;;;;;4.18;2.70;;;;;;;28.63;36.56;96946.75;5094328;28;20028;-26
2022/07/03 03:23:52;;;;;;;3.65;2.80;;;;;;;28.66;36.61;96948.47;5095755;28;20110;-26
2022/07/03 03:26:33;;;;;;;3.22;2.60;;;;;;;28.63;36.35;96935.56;5094277;28;20031;-27
2022/07/03 03:28:59;;;;;;;5.28;2.85;;;;;;;28.61;36.57;96943.72;5095697;28;20069;-26
2022/07/03 03:31:26;;;;;;;4.38;2.85;;;;;;;28.49;37.09;96948.00;5095396;28;20028;-26
2022/07/03 03:33:53;;;;;;;4.72;3.20;;;;;;;28.57;36.97;96943.28;5095360;28;20103;-26
2022/07/03 03:36:19;;;;;;;2.95;2.58;;;;;;;28.62;36.51;96941.69;5095528;28;20024;-26
2022/07/03 03:38:47;;;;;;;4.32;2.40;;;;;;;28.61;36.67;96940.94;5095380;28;20500;-26
2022/07/03 03:41:12;;;;;;;7.22;3.08;;;;;;;28.58;36.71;96936.41;5094911;28;20031;-26
2022/07/03 03:43:39;;;;;;;6.38;3.00;;;;;;;28.59;36.46;96941.47;5094457;28;20073;-25
2022/07/03 03:46:05;;;;;;;5.70;3.40;;;;;;;28.61;36.75;96949.31;5095116;28;20023;-26
2022/07/03 03:48:34;;;;;;;5.68;2.90;;;;;;;28.54;37.04;96941.59;5095321;28;20492;-26
2022/07/03 03:51:01;;;;;;;6.55;3.05;;;;;;;28.34;37.14;96942.94;5095295;28;20467;-26
2022/07/03 03:53:28;;;;;;;5.65;2.90;;;;;;;28.56;36.88;96942.53;5095397;28;20028;-27
2022/07/03 03:56:07;;;;;;;3.58;2.97;;;;;;;28.55;37.22;96943.09;5095030;28;20043;-26
2022/07/03 03:58:38;;;;;;;3.95;2.58;;;;;;;28.57;37.11;96943.28;5095049;28;20153;-27
2022/07/03 04:01:06;;;;;;;6.38;3.10;;;;;;;28.58;36.90;96939.97;5094897;28;20020;-26
2022/07/03 04:03:32;;;;;;;7.03;3.10;;;;;;;28.41;37.20;96938.78;5094959;28;20091;-26
2022/07/03 04:05:58;;;;;;;5.45;3.00;;;;;;;28.49;36.93;96940.38;5094541;28;20055;-26
2022/07/03 04:08:25;;;;;;;3.63;2.88;;;;;;;28.56;36.84;96944.59;5094631;28;20024;-28
2022/07/03 04:10:51;;;;;;;4.65;3.03;;;;;;;28.58;36.74;96945.53;5094697;28;20105;-25
2022/07/03 04:13:19;;;;;;;5.07;2.85;;;;;;;28.61;36.56;96949.31;5094661;28;20050;-26
2022/07/03 04:15:45;;;;;;;6.05;2.70;;;;;;;28.58;36.82;96955.94;5094629;28;20103;-26
2022/07/03 04:18:10;;;;;;;5.82;3.15;;;;;;;28.54;36.81;96944.38;5094677;28;20103;-26
2022/07/03 04:20:36;;;;;;;3.47;2.97;;;;;;;28.55;36.37;96945.88;5094689;28;20043;-26
2022/07/03 04:23:01;;;;;;;3.25;2.35;;;;;;;28.55;36.40;96957.03;5094507;28;20069;-25
2022/07/03 04:25:27;;;;;;;6.80;3.10;;;;;;;28.59;36.59;96951.88;5094461;28;20103;-26
2022/07/03 04:27:53;;;;;;;5.07;3.25;;;;;;;28.57;37.00;96954.44;5094612;28;20099;-26
2022/07/03 04:30:19;;;;;;;5.25;3.03;;;;;;;28.56;36.44;96958.53;5094137;28;20099;-26
2022/07/03 04:32:45;;;;;;;6.97;3.13;;;;;;;28.55;36.81;96948.66;5094329;28;20103;-26
2022/07/03 04:35:11;;;;;;;4.65;3.15;;;;;;;28.53;36.62;96957.56;5094318;28;20046;-26
2022/07/03 04:37:36;;;;;;;4.63;3.25;;;;;;;28.57;36.43;96957.22;5093994;28;20035;-26
2022/07/03 04:40:02;;;;;;;3.22;2.65;;;;;;;28.56;36.50;96959.28;5094267;28;20056;-26
2022/07/03 04:42:28;;;;;;;4.78;2.88;;;;;;;28.55;36.61;96954.25;5094101;28;20055;-26
2022/07/03 04:44:53;;;;;;;4.85;2.92;;;;;;;28.55;36.56;96952.22;5094125;28;20059;-26
2022/07/03 04:47:20;;;;;;;3.83;2.85;;;;;;;28.52;36.69;96963.69;5094011;28;20028;-26
2022/07/03 04:49:46;;;;;;;4.60;2.90;;;;;;;28.53;36.70;96959.59;5093921;28;20070;-26
2022/07/03 04:52:11;;;;;;;5.60;3.20;;;;;;;28.54;36.60;96961.88;5093925;28;20417;-26
2022/07/03 04:54:37;;;;;;;3.35;2.80;;;;;;;28.53;36.49;96957.56;5093855;28;20019;-26
2022/07/03 04:57:03;;;;;;;5.43;2.90;;;;;;;28.51;36.58;96959.38;5093781;28;20020;-26
2022/07/03 04:59:28;;;;;;;5.03;3.13;;;;;;;28.53;36.71;96957.56;5093878;28;20077;-26
2022/07/03 05:01:54;;;;;;;5.03;3.42;;;;;;;28.56;37.03;96964.84;5093876;28;20020;-26
2022/07/03 05:04:20;;;;;;;4.50;3.00;;;;;;;28.57;36.89;96960.78;5093607;28;20493;-26
2022/07/03 05:06:45;;;;;;;4.55;3.20;;;;;;;28.54;36.78;96955.53;5093413;28;20048;-26
2022/07/03 05:09:11;;;;;;;5.25;2.72;;;;;;;28.55;36.76;96959.84;5093898;28;20032;-26
2022/07/03 05:11:37;;;;;;;5.63;3.10;;;;;;;28.56;37.13;96969.72;5093717;28;20074;-28
2022/07/03 05:14:03;;;;;;;5.43;2.92;;;;;;;28.55;36.73;96962.63;5093751;28;20055;-28
2022/07/03 05:16:29;;;;;;;5.60;3.22;;;;;;;28.55;36.59;96971.00;5093639;28;20505;-26
2022/07/03 05:18:54;;;;;;;5.70;2.72;;;;;;;28.52;37.17;96964.44;5093513;28;20028;-26
2022/07/03 05:21:20;;;;;;;4.53;3.40;;;;;;;28.52;37.98;96972.81;5093519;28;20024;-26
2022/07/03 05:23:45;;;;;;;6.07;3.75;;;;;;;28.58;37.32;96964.31;5093468;28;20028;-26
2022/07/03 05:26:11;;;;;;;8.98;4.30;;;;;;;28.58;37.73;96965.06;5093463;28;20425;-26
2022/07/03 05:28:36;;;;;;;6.35;3.80;;;;;;;28.58;37.34;96972.69;5093547;28;20024;-26
2022/07/03 05:31:01;;;;;;;6.15;3.17;;;;;;;28.53;37.20;96977.09;5093505;28;20028;-26
2022/07/03 05:33:27;;;;;;;4.93;2.95;;;;;;;28.52;37.15;96972.81;5093538;28;20030;-26
2022/07/03 05:35:55;;;;;;;5.78;3.30;;;;;;;28.57;37.88;96968.41;5092062;28;20120;-27
2022/07/03 05:41:04;;;;;;;6.03;3.60;;;;;;;28.63;37.06;96977.44;5093588;28;20035;-26
2022/07/03 05:43:30;;;;;;;6.80;3.40;;;;;;;28.57;37.27;96979.56;5093483;28;20385;-26
2022/07/03 05:45:55;;;;;;;4.47;3.30;;;;;;;28.54;37.72;96977.84;5093316;28;20051;-26
2022/07/03 05:48:21;;;;;;;5.85;3.60;;;;;;;28.62;37.35;96983.53;5093064;28;20051;-26
2022/07/03 05:50:46;;;;;;;8.85;3.80;;;;;;;28.59;37.47;96985.38;5093322;28;20389;-25
2022/07/03 05:53:12;;;;;;;6.97;3.67;;;;;;;28.63;36.82;96985.06;5093255;28;20473;-26
2022/07/03 05:55:37;;;;;;;3.97;3.10;;;;;;;28.64;37.22;96992.91;5093279;28;20480;-28
2022/07/03 05:58:02;;;;;;;10.05;3.30;;;;;;;28.62;37.53;96998.25;5093300;28;20058;-26
2022/07/03 06:00:28;;;;;;;8.93;3.58;;;;;;;28.56;37.12;96989.25;5093151;28;20024;-26
2022/07/03 06:02:54;;;;;;;5.45;3.50;;;;;;;28.55;37.50;96990.53;5091897;28;20111;-26
2022/07/03 06:05:19;;;;;;;5.63;3.20;;;;;;;28.58;37.20;96992.22;5093858;28;20354;-26
2022/07/03 06:07:45;;;;;;;5.68;3.08;;;;;;;28.56;37.84;96997.63;5097097;28;20063;-26
2022/07/03 06:10:10;;;;;;;4.38;3.53;;;;;;;28.56;37.38;96994.81;5096919;28;20385;-26
2022/07/03 06:12:36;;;;;;;7.22;3.25;;;;;;;28.56;37.23;96997.63;5097034;28;20024;-26
2022/07/03 06:15:01;;;;;;;7.60;2.95;;;;;;;28.51;37.65;96998.44;5096959;28;20054;-27
2022/07/03 06:17:27;;;;;;;6.80;3.25;;;;;;;28.56;37.32;97000.41;5096951;28;20036;-28
2022/07/03 06:19:52;;;;;;;6.85;3.53;;;;;;;28.51;37.74;96998.44;5097199;28;20024;-26
2022/07/03 06:22:18;;;;;;;7.55;3.22;;;;;;;28.49;37.94;96996.19;5088313;28;20024;-26
2022/07/03 06:24:43;;;;;;;7.03;3.03;;;;;;;28.53;37.74;96999.44;5087756;28;20027;-26
2022/07/03 06:27:09;;;;;;;7.55;3.10;;;;;;;28.57;37.56;97001.88;5094704;28;20023;-26
2022/07/03 06:29:34;;;;;;;5.45;3.25;;;;;;;28.50;37.66;96999.72;5074521;28;20061;-26
2022/07/03 06:31:59;;;;;;;6.28;3.42;;;;;;;28.51;37.41;97001.25;5074295;28;20032;-26
2022/07/03 06:34:25;;;;;;;5.07;3.03;;;;;;;28.51;37.49;97007.56;5074128;28;20032;-26
2022/07/03 06:36:52;;;;;;;9.38;3.40;;;;;;;28.54;37.90;97005.75;5074336;28;20031;-26
2022/07/03 06:39:17;;;;;;;5.53;3.13;;;;;;;28.55;37.70;97004.47;5074157;28;20032;-26
2022/07/03 06:41:43;;;;;;;8.60;3.20;;;;;;;28.37;38.49;97011.63;5093746;28;20035;-26
2022/07/03 06:44:08;;;;;;;11.20;3.25;;;;;;;28.46;38.09;97008.41;5094283;28;20026;-27
2022/07/03 06:46:34;;;;;;;7.10;3.47;;;;;;;28.42;38.29;97012.81;5094053;28;20032;-26
2022/07/03 06:48:59;;;;;;;5.68;3.20;;;;;;;28.27;38.83;97016.09;5093808;28;20031;-26
2022/07/03 06:51:25;;;;;;;7.22;3.10;;;;;;;28.50;37.79;97022.81;5094167;28;20416;-25
2022/07/03 06:53:50;;;;;;;5.25;2.97;;;;;;;28.43;38.47;97023.44;5094237;28;20063;-26
2022/07/03 06:56:16;;;;;;;8.20;3.40;;;;;;;28.43;38.24;97017.09;5094181;28;20374;-26
2022/07/03 06:58:41;;;;;;;4.90;3.13;;;;;;;28.57;37.53;97013.03;5093949;28;20438;-26
2022/07/03 07:01:07;;;;;;;8.40;3.53;;;;;;;28.62;37.32;97017.78;5092823;28;20027;-25
2022/07/03 07:03:32;;;;;;;6.93;3.10;;;;;;;28.62;37.25;97020.56;5094243;28;20056;-25
2022/07/03 07:05:58;;;;;;;4.80;2.70;;;;;;;28.69;36.91;97010.81;5093820;28;20109;-27
2022/07/03 07:08:23;;;;;;;6.00;3.10;;;;;;;28.67;37.04;97008.56;5093921;28;20034;-26
2022/07/03 07:10:49;;;;;;;4.40;3.40;;;;;;;28.64;37.22;97015.22;5093662;28;20024;-26
2022/07/03 07:13:14;;;;;;;8.95;3.70;;;;;;;28.63;37.52;97010.91;5093924;28;20107;-26
2022/07/03 07:15:39;;;;;;;8.68;3.58;;;;;;;28.64;37.74;97008.88;5093825;28;20028;-26
2022/07/03 07:18:05;;;;;;;9.38;3.10;;;;;;;28.66;37.32;97006.31;5079977;28;20043;-26
2022/07/03 07:20:30;;;;;;;3.40;2.58;;;;;;;28.65;36.73;97005.56;5075123;28;20382;-26
2022/07/03 07:22:56;;;;;;;4.07;3.03;;;;;;;28.67;37.15;97008.56;5075391;28;20028;-26
2022/07/03 07:25:21;;;;;;;5.47;2.75;;;;;;;28.60;37.51;96998.03;5075438;28;20025;-26
2022/07/03 07:27:47;;;;;;;5.43;2.80;;;;;;;28.69;37.57;97000.41;5075270;28;20035;-26
2022/07/03 07:30:13;;;;;;;5.72;3.20;;;;;;;28.68;37.16;97010.09;5075241;28;20364;-26
2022/07/03 07:32:39;;;;;;;6.05;3.05;;;;;;;28.65;37.06;97005.56;5074967;28;20077;-26
2022/07/03 07:35:05;;;;;;;5.95;3.63;;;;;;;28.72;37.18;97015.31;5075155;28;20078;-26
2022/07/03 07:37:31;;;;;;;5.97;3.33;;;;;;;28.73;37.11;97016.84;5074997;28;20025;-26
2022/07/03 07:39:56;;;;;;;5.13;3.10;;;;;;;28.71;36.97;97003.41;5074976;28;20086;-27
2022/07/03 07:42:24;;;;;;;8.27;3.65;;;;;;;28.73;37.33;97008.47;5074890;28;20020;-26
2022/07/03 07:44:50;;;;;;;5.30;3.45;;;;;;;28.76;36.91;97010.19;5074951;28;20469;-26
2022/07/03 07:47:15;;;;;;;5.05;3.22;;;;;;;28.66;37.14;97012.66;5074986;28;20103;-26
2022/07/03 07:49:41;;;;;;;7.05;3.65;;;;;;;28.70;37.28;97010.28;5075372;28;20025;-26
2022/07/03 07:52:07;;;;;;;7.00;3.90;;;;;;;28.73;37.08;97014.03;5074611;28;20036;-26
2022/07/03 07:54:32;;;;;;;6.13;3.28;;;;;;;28.73;37.05;97019.63;5075000;28;20059;-26
2022/07/03 07:56:58;;;;;;;4.70;3.22;;;;;;;28.70;37.49;97013.06;5074730;28;20451;-26
2022/07/03 07:59:23;;;;;;;7.03;3.47;;;;;;;28.67;37.27;97008.56;5074651;28;20020;-26
2022/07/03 08:07:17;;;;;;;7.20;3.42;;;;;;;28.77;37.23;97006.88;5074205;28;20063;-26
2022/07/03 08:09:42;;;;;;;5.18;3.08;;;;;;;28.75;37.10;97011.47;5074519;28;20020;-26
2022/07/03 08:12:08;;;;;;;8.63;3.78;;;;;;;28.78;37.42;97008.41;5074434;28;20104;-26
2022/07/03 08:14:34;;;;;;;5.43;3.60;;;;;;;28.70;37.61;97012.31;5074412;28;20020;-26
2022/07/03 08:16:59;;;;;;;6.97;3.70;;;;;;;28.77;37.25;97009.66;5074229;28;20059;-26
2022/07/03 08:19:25;;;;;;;6.30;3.53;;;;;;;28.78;37.13;97013.22;5074137;28;20527;-26
2022/07/03 08:21:50;;;;;;;4.63;3.40;;;;;;;28.71;37.59;97011.78;5074149;28;20031;-26
2022/07/03 08:24:16;;;;;;;4.88;3.33;;;;;;;28.78;37.34;97022.38;5074538;28;20532;-26
2022/07/03 08:26:42;;;;;;;6.50;3.70;;;;;;;28.76;37.32;97022.09;5074375;28;20398;-26
2022/07/03 08:29:13;;;;;;;6.30;3.10;;;;;;;28.73;37.45;97025.97;5073496;28;20497;-26
2022/07/03 08:31:39;;;;;;;6.25;3.28;;;;;;;28.78;37.63;97025.16;5073788;28;20032;-26
2022/07/03 08:34:04;;;;;;;6.30;3.90;;;;;;;28.76;37.47;97024.16;5073857;28;20024;-26
2022/07/03 08:36:30;;;;;;;5.50;3.47;;;;;;;28.83;36.96;97029.88;5094548;28;20027;-26
2022/07/03 08:38:56;;;;;;;5.43;3.47;;;;;;;28.73;37.37;97019.63;5093955;28;20016;-26
2022/07/03 08:41:23;;;;;;;6.35;3.65;;;;;;;28.84;36.94;97025.78;5094136;28;20020;-26
2022/07/03 08:43:51;;;;;;;6.22;3.58;;;;;;;28.85;37.04;97013.34;5094111;28;20466;-26
2022/07/03 08:46:18;;;;;;;7.25;3.67;;;;;;;28.79;37.09;97007.13;5093952;28;20060;-26
2022/07/03 08:48:45;;;;;;;5.03;3.65;;;;;;;28.81;37.10;97010.09;5093970;28;20058;-26
2022/07/03 08:51:11;;;;;;;5.10;3.55;;;;;;;28.83;37.04;97001.94;5093963;28;20026;-26
2022/07/03 08:53:37;;;;;;;5.70;3.53;;;;;;;28.81;37.13;96995.41;5093918;28;20144;-26
2022/07/03 08:56:03;;;;;;;6.60;3.60;;;;;;;28.82;36.99;97003.25;5093761;28;20027;-26
2022/07/03 08:58:31;;;;;;;4.72;3.67;;;;;;;28.83;37.25;97004.00;5093796;28;20039;-26
2022/07/03 09:00:56;;;;;;;6.28;3.60;;;;;;;28.82;36.90;96997.66;5093491;28;20447;-26
2022/07/03 09:03:24;;;;;;;5.00;3.00;;;;;;;28.81;36.86;97007.31;5093896;28;20030;-25
2022/07/03 09:05:50;;;;;;;5.13;3.30;;;;;;;28.82;37.29;97008.81;5093639;28;20119;-26
2022/07/03 09:08:17;;;;;;;6.40;3.28;;;;;;;28.81;37.21;96998.19;5093738;28;20024;-27
2022/07/03 09:10:44;;;;;;;7.40;3.22;;;;;;;28.85;37.08;96998.63;5093608;28;20024;-26
2022/07/03 09:13:11;;;;;;;5.68;3.50;;;;;;;28.89;37.03;96996.28;5093613;28;20430;-27
2022/07/03 09:15:36;;;;;;;6.00;3.35;;;;;;;28.79;37.11;96995.97;5093458;28;20051;-26
2022/07/03 09:18:04;;;;;;;5.38;3.63;;;;;;;28.79;37.11;96995.97;5089955;28;20058;-26
2022/07/03 09:20:32;;;;;;;6.18;3.53;;;;;;;28.84;37.04;97006.25;5078491;28;20027;-26
2022/07/03 09:23:19;;;;;;;7.45;3.60;;;;;;;28.85;37.06;97007.75;5090244;28;20058;-27
2022/07/03 09:25:54;;;;;;;6.88;3.45;;;;;;;28.86;36.97;97009.25;5093264;28;20107;-26
2022/07/03 09:28:21;;;;;;;6.07;3.55;;;;;;;28.87;36.87;97010.00;5093557;28;20426;-26
2022/07/03 09:31:00;;;;;;;4.63;3.75;;;;;;;28.89;36.78;97008.19;5093384;28;20107;-26
2022/07/03 09:33:26;;;;;;;6.88;3.42;;;;;;;28.94;36.83;97009.38;5093461;28;20518;-26
2022/07/03 09:35:55;;;;;;;6.85;2.88;;;;;;;28.88;36.81;96992.72;5093418;28;20028;-26
2022/07/03 09:38:21;;;;;;;3.97;3.30;;;;;;;28.81;37.17;96993.34;5093418;28;20050;-26
2022/07/03 09:40:52;;;;;;;7.38;3.35;;;;;;;28.92;36.94;96990.38;5095028;28;20020;-26
2022/07/03 09:43:28;;;;;;;6.90;4.10;;;;;;;28.92;36.87;96995.97;5097562;28;20016;-26
2022/07/03 09:45:56;;;;;;;6.68;3.50;;;;;;;28.93;36.93;96989.06;5097682;28;20077;-27
2022/07/03 09:48:34;;;;;;;6.05;3.13;;;;;;;28.88;36.89;96994.78;5097743;28;20020;-26
2022/07/03 09:51:20;;;;;;;7.43;4.00;;;;;;;28.95;36.68;96994.13;5097361;28;20354;-26
2022/07/03 09:53:58;;;;;;;8.18;3.58;;;;;;;28.93;36.70;96991.84;5097349;28;20020;-26
2022/07/03 09:56:35;;;;;;;4.38;3.38;;;;;;;28.94;36.43;96992.63;5097240;28;20063;-26
2022/07/03 09:59:14;;;;;;;4.63;3.40;;;;;;;28.92;36.05;96986.84;5095940;28;20110;-26
2022/07/03 10:01:45;;;;;;;7.43;3.80;;;;;;;28.92;36.45;96984.78;5095899;28;20023;-26
2022/07/03 10:04:16;;;;;;;6.93;3.45;;;;;;;28.97;36.61;96982.41;5096733;28;20020;-28
2022/07/03 10:07:00;;;;;;;7.63;3.13;;;;;;;29.01;36.12;96980.06;5096916;28;20102;-26
2022/07/03 10:09:31;;;;;;;6.05;3.10;;;;;;;28.92;36.06;96979.22;5095478;28;20385;-26
2022/07/03 10:11:58;;;;;;;5.57;3.65;;;;;;;28.94;36.29;96976.63;5095958;28;20505;-26
2022/07/03 10:14:26;;;;;;;10.48;3.35;;;;;;;28.92;36.45;96979.22;5082381;28;20056;-26
2022/07/03 10:16:51;;;;;;;6.38;3.58;;;;;;;28.82;36.39;96978.13;5076893;28;20028;-26
2022/07/03 10:19:21;;;;;;;7.95;2.83;;;;;;;28.67;36.60;96977.88;5076550;28;20024;-26
2022/07/03 10:21:55;;;;;;;6.47;3.15;;;;;;;28.86;36.23;96970.19;5076544;28;20081;-26
2022/07/03 10:24:26;;;;;;;6.38;3.05;;;;;;;28.83;36.46;96968.44;5076794;28;20102;-27
2022/07/03 10:26:52;;;;;;;8.48;3.35;;;;;;;28.95;35.81;96966.19;5076419;28;20028;-26
2022/07/03 10:29:21;;;;;;;7.07;3.25;;;;;;;28.87;36.15;96966.09;5076294;28;20021;-26
2022/07/03 10:31:47;;;;;;;7.72;3.35;;;;;;;28.92;35.98;96967.28;5076785;28;20024;-26
2022/07/03 10:34:17;;;;;;;5.50;3.10;;;;;;;28.99;35.88;96958.25;5076213;28;20020;-26
2022/07/03 10:36:43;;;;;;;6.10;3.05;;;;;;;28.83;35.80;96951.69;5076413;28;20032;-26
2022/07/03 10:39:20;;;;;;;7.35;3.25;;;;;;;28.99;35.68;96949.13;5076339;28;20024;-26
2022/07/03 10:44:46;;;;;;;9.57;2.92;;;;;;;28.94;35.60;96943.09;5076663;28;20031;-27
2022/07/03 10:47:46;;;;;;;5.53;3.00;;;;;;;28.84;35.74;96930.88;5076129;28;20024;-26
2022/07/03 10:50:22;;;;;;;4.47;3.33;;;;;;;28.87;35.74;96940.97;5076106;28;20032;-26
2022/07/03 10:52:48;;;;;;;6.90;3.00;;;;;;;28.87;35.71;96943.75;5075585;28;20032;-26
2022/07/03 10:55:15;;;;;;;5.35;2.50;;;;;;;28.83;35.78;96950.94;5075764;28;20030;-26
2022/07/03 10:58:13;;;;;;;6.18;3.17;;;;;;;28.84;35.68;96949.66;5075911;28;20080;-26
2022/07/03 11:00:56;;;;;;;8.05;3.42;;;;;;;28.76;35.93;96960.69;5063726;28;20115;-26
2022/07/03 11:03:40;;;;;;;;;;;;;;;28.75;35.84;96953.63;5076504;28;20032;-26
2022/07/03 11:06:06;;;;;;;6.25;2.70;;;;;;;28.87;35.60;96952.13;5075600;28;19916;-26
2022/07/03 11:08:31;;;;;;;7.47;3.38;;;;;;;28.91;35.52;96952.59;5075688;28;20027;-26
2022/07/03 11:11:54;;;;;;;4.30;3.30;;;;;;;28.87;35.52;96952.13;5075564;28;20067;-26
2022/07/03 11:14:18;;;;;;;5.28;2.85;;;;;;;28.83;35.21;96937.00;5075455;28;20032;-26
2022/07/03 11:16:46;;;;;;;3.80;2.75;;;;;;;28.91;35.14;96937.88;5075806;28;20512;-26
2022/07/03 11:19:11;;;;;;;5.45;3.05;;;;;;;28.84;35.24;96939.25;5075480;28;20387;-26
2022/07/03 11:21:42;;;;;;;5.95;3.20;;;;;;;28.91;35.20;96933.03;5075555;28;20082;-26
2022/07/03 11:24:37;;;;;;;6.20;2.80;;;;;;;28.95;35.02;96922.28;5075473;28;20043;-26
2022/07/03 11:27:20;;;;;;;5.03;2.70;;;;;;;28.94;35.27;96917.97;5075503;28;20398;-26
2022/07/03 11:30:04;;;;;;;5.32;2.90;;;;;;;29.00;35.13;96919.91;5075141;28;20024;-26
2022/07/03 11:32:48;;;;;;;5.50;2.63;;;;;;;28.98;35.11;96914.13;5075496;28;20059;-26
2022/07/03 11:35:46;;;;;;;4.40;2.97;;;;;;;28.81;35.26;96915.19;5075396;28;20462;-26
2022/07/03 11:38:14;;;;;;;8.57;3.22;;;;;;;28.94;35.22;96911.66;5075132;28;20020;-26
2022/07/03 11:40:43;;;;;;;5.55;3.00;;;;;;;29.00;34.77;96900.38;5075191;28;20073;-26
2022/07/03 11:43:09;;;;;;;5.72;2.88;;;;;;;28.97;34.29;96898.66;5074968;28;20024;-26
2022/07/03 11:45:37;;;;;;;4.95;2.70;;;;;;;29.00;34.05;96903.91;5074922;28;20035;-27
2022/07/03 11:48:15;;;;;;;5.20;2.95;;;;;;;28.88;34.72;96902.66;5075121;28;20421;-26
2022/07/03 11:50:46;;;;;;;3.88;3.03;;;;;;;28.97;34.49;96895.84;5075099;28;20020;-26
2022/07/03 11:53:32;;;;;;;7.22;3.25;;;;;;;29.05;34.25;96897.47;5074886;28;20497;-26
2022/07/03 11:56:05;;;;;;;5.45;3.05;;;;;;;29.08;34.36;96895.63;5081950;28;20035;-26
2022/07/03 11:58:50;;;;;;;7.72;3.63;;;;;;;29.01;34.45;96890.72;5093303;28;20531;-26